sensor_id;sensor_type;location;lat;lon;timestamp;P1;durP1;ratioP1;P2;durP2;ratioP2
46284;SDS011;32018;59.182;18.148;2023-06-22T00:01:51;4.72;;;3.90;;
46284;SDS011;32018;59.182;18.148;2023-06-22T00:04:16;3.80;;;3.60;;
46284;SDS011;32018;59.182;18.148;2023-06-22T00:06:42;2.43;;;2.33;;
46284;SDS011;32018;59.182;18.148;2023-06-22T00:09:07;3.43;;;3.23;;
46284;SDS011;32018;59.182;18.148;2023-06-22T00:11:35;4.23;;;4.03;;
46284;SDS011;32018;59.182;18.148;2023-06-22T00:14:01;4.80;;;4.50;;
46284;SDS011;32018;59.182;18.148;2023-06-22T00:16:26;5.28;;;4.93;;
46284;SDS011;32018;59.182;18.148;2023-06-22T00:18:51;5.00;;;4.60;;
46284;SDS011;32018;59.182;18.148;2023-06-22T00:21:16;2.73;;;2.53;;
46284;SDS011;32018;59.182;18.148;2023-06-22T00:23:42;4.90;;;4.57;;
46284;SDS011;32018;59.182;18.148;2023-06-22T00:26:07;5.50;;;5.20;;
46284;SDS011;32018;59.182;18.148;2023-06-22T00:28:33;5.27;;;4.97;;
46284;SDS011;32018;59.182;18.148;2023-06-22T00:30:58;5.65;;;5.35;;
46284;SDS011;32018;59.182;18.148;2023-06-22T00:33:23;4.87;;;4.57;;
46284;SDS011;32018;59.182;18.148;2023-06-22T00:35:49;3.45;;;3.25;;
46284;SDS011;32018;59.182;18.148;2023-06-22T00:38:17;2.97;;;2.78;;
46284;SDS011;32018;59.182;18.148;2023-06-22T00:40:42;4.07;;;3.77;;
46284;SDS011;32018;59.182;18.148;2023-06-22T00:43:08;4.55;;;4.28;;
46284;SDS011;32018;59.182;18.148;2023-06-22T00:45:33;3.97;;;3.77;;
46284;SDS011;32018;59.182;18.148;2023-06-22T00:47:58;2.83;;;2.67;;
46284;SDS011;32018;59.182;18.148;2023-06-22T00:50:25;3.47;;;3.28;;
46284;SDS011;32018;59.182;18.148;2023-06-22T00:52:51;3.08;;;2.88;;
46284;SDS011;32018;59.182;18.148;2023-06-22T00:55:18;3.00;;;2.80;;
46284;SDS011;32018;59.182;18.148;2023-06-22T00:57:45;4.88;;;4.60;;
46284;SDS011;32018;59.182;18.148;2023-06-22T01:00:10;4.60;;;4.30;;
46284;SDS011;32018;59.182;18.148;2023-06-22T01:02:44;3.35;;;3.15;;
46284;SDS011;32018;59.182;18.148;2023-06-22T01:05:15;4.05;;;3.80;;
46284;SDS011;32018;59.182;18.148;2023-06-22T01:10:30;5.93;;;5.43;;
46284;SDS011;32018;59.182;18.148;2023-06-22T01:13:04;3.28;;;3.08;;
46284;SDS011;32018;59.182;18.148;2023-06-22T01:15:33;4.18;;;3.88;;
46284;SDS011;32018;59.182;18.148;2023-06-22T01:18:00;5.40;;;5.00;;
46284;SDS011;32018;59.182;18.148;2023-06-22T01:20:27;5.88;;;5.47;;
46284;SDS011;32018;59.182;18.148;2023-06-22T01:25:57;4.70;;;4.35;;
46284;SDS011;32018;59.182;18.148;2023-06-22T01:31:08;2.60;;;2.42;;
46284;SDS011;32018;59.182;18.148;2023-06-22T01:33:37;2.20;;;2.10;;
46284;SDS011;32018;59.182;18.148;2023-06-22T01:36:02;3.95;;;3.75;;
46284;SDS011;32018;59.182;18.148;2023-06-22T01:38:28;3.47;;;3.22;;
46284;SDS011;32018;59.182;18.148;2023-06-22T01:40:54;3.28;;;3.08;;
46284;SDS011;32018;59.182;18.148;2023-06-22T01:43:20;2.30;;;2.20;;
46284;SDS011;32018;59.182;18.148;2023-06-22T01:45:47;3.95;;;3.65;;
46284;SDS011;32018;59.182;18.148;2023-06-22T01:48:13;2.80;;;2.60;;
46284;SDS011;32018;59.182;18.148;2023-06-22T01:50:38;4.68;;;4.47;;
46284;SDS011;32018;59.182;18.148;2023-06-22T01:53:03;4.80;;;4.50;;
46284;SDS011;32018;59.182;18.148;2023-06-22T01:55:30;5.78;;;5.47;;
46284;SDS011;32018;59.182;18.148;2023-06-22T01:57:55;4.83;;;4.60;;
46284;SDS011;32018;59.182;18.148;2023-06-22T02:00:21;2.93;;;2.73;;
46284;SDS011;32018;59.182;18.148;2023-06-22T02:05:14;2.80;;;2.70;;
46284;SDS011;32018;59.182;18.148;2023-06-22T02:07:41;5.70;;;5.30;;
46284;SDS011;32018;59.182;18.148;2023-06-22T02:10:09;2.17;;;2.08;;
46284;SDS011;32018;59.182;18.148;2023-06-22T02:12:37;4.07;;;3.83;;
46284;SDS011;32018;59.182;18.148;2023-06-22T02:15:03;3.58;;;3.35;;
46284;SDS011;32018;59.182;18.148;2023-06-22T02:17:29;3.95;;;3.75;;
46284;SDS011;32018;59.182;18.148;2023-06-22T02:19:58;6.55;;;6.15;;
46284;SDS011;32018;59.182;18.148;2023-06-22T02:22:23;7.80;;;7.25;;
46284;SDS011;32018;59.182;18.148;2023-06-22T02:24:48;6.47;;;6.18;;
46284;SDS011;32018;59.182;18.148;2023-06-22T02:27:14;6.63;;;6.27;;
46284;SDS011;32018;59.182;18.148;2023-06-22T02:29:39;6.87;;;6.47;;
46284;SDS011;32018;59.182;18.148;2023-06-22T02:32:04;7.00;;;6.57;;
46284;SDS011;32018;59.182;18.148;2023-06-22T02:34:29;6.22;;;5.93;;
46284;SDS011;32018;59.182;18.148;2023-06-22T02:36:55;2.40;;;2.30;;
46284;SDS011;32018;59.182;18.148;2023-06-22T02:39:21;6.75;;;6.30;;
46284;SDS011;32018;59.182;18.148;2023-06-22T02:41:47;2.95;;;2.75;;
46284;SDS011;32018;59.182;18.148;2023-06-22T02:44:12;2.75;;;2.65;;
46284;SDS011;32018;59.182;18.148;2023-06-22T02:46:37;2.77;;;2.67;;
46284;SDS011;32018;59.182;18.148;2023-06-22T02:49:03;2.50;;;2.30;;
46284;SDS011;32018;59.182;18.148;2023-06-22T02:51:28;2.35;;;2.25;;
46284;SDS011;32018;59.182;18.148;2023-06-22T02:53:53;5.03;;;4.73;;
46284;SDS011;32018;59.182;18.148;2023-06-22T02:56:22;2.75;;;2.63;;
46284;SDS011;32018;59.182;18.148;2023-06-22T02:58:50;2.40;;;2.30;;
46284;SDS011;32018;59.182;18.148;2023-06-22T03:01:15;5.70;;;5.40;;
46284;SDS011;32018;59.182;18.148;2023-06-22T03:03:40;2.20;;;2.10;;
46284;SDS011;32018;59.182;18.148;2023-06-22T03:06:05;2.90;;;2.73;;
46284;SDS011;32018;59.182;18.148;2023-06-22T03:08:31;5.57;;;5.22;;
46284;SDS011;32018;59.182;18.148;2023-06-22T03:10:56;5.07;;;4.78;;
46284;SDS011;32018;59.182;18.148;2023-06-22T03:13:21;5.73;;;5.40;;
46284;SDS011;32018;59.182;18.148;2023-06-22T03:15:47;7.15;;;6.75;;
46284;SDS011;32018;59.182;18.148;2023-06-22T03:18:12;7.17;;;6.67;;
46284;SDS011;32018;59.182;18.148;2023-06-22T03:20:37;6.63;;;6.27;;
46284;SDS011;32018;59.182;18.148;2023-06-22T03:23:02;6.50;;;6.20;;
46284;SDS011;32018;59.182;18.148;2023-06-22T03:25:28;6.03;;;5.72;;
46284;SDS011;32018;59.182;18.148;2023-06-22T03:27:53;5.17;;;4.87;;
46284;SDS011;32018;59.182;18.148;2023-06-22T03:30:18;4.50;;;4.30;;
46284;SDS011;32018;59.182;18.148;2023-06-22T03:32:43;4.60;;;4.40;;
46284;SDS011;32018;59.182;18.148;2023-06-22T03:35:09;6.63;;;6.22;;
46284;SDS011;32018;59.182;18.148;2023-06-22T03:37:34;3.85;;;3.65;;
46284;SDS011;32018;59.182;18.148;2023-06-22T03:39:59;6.83;;;6.53;;
46284;SDS011;32018;59.182;18.148;2023-06-22T03:42:25;7.30;;;6.80;;
46284;SDS011;32018;59.182;18.148;2023-06-22T03:44:50;7.10;;;6.70;;
46284;SDS011;32018;59.182;18.148;2023-06-22T03:47:16;6.27;;;5.87;;
46284;SDS011;32018;59.182;18.148;2023-06-22T03:49:41;6.55;;;6.25;;
46284;SDS011;32018;59.182;18.148;2023-06-22T03:52:06;7.97;;;6.83;;
46284;SDS011;32018;59.182;18.148;2023-06-22T03:54:31;6.38;;;5.95;;
46284;SDS011;32018;59.182;18.148;2023-06-22T03:56:57;6.30;;;6.00;;
46284;SDS011;32018;59.182;18.148;2023-06-22T03:59:23;5.55;;;5.15;;
46284;SDS011;32018;59.182;18.148;2023-06-22T04:01:48;3.08;;;2.92;;
46284;SDS011;32018;59.182;18.148;2023-06-22T04:04:13;5.80;;;5.50;;
46284;SDS011;32018;59.182;18.148;2023-06-22T04:06:38;4.53;;;4.32;;
46284;SDS011;32018;59.182;18.148;2023-06-22T04:09:05;5.60;;;5.30;;
46284;SDS011;32018;59.182;18.148;2023-06-22T04:11:30;5.78;;;5.47;;
46284;SDS011;32018;59.182;18.148;2023-06-22T04:13:55;4.18;;;3.97;;
46284;SDS011;32018;59.182;18.148;2023-06-22T04:16:21;5.13;;;4.93;;
46284;SDS011;32018;59.182;18.148;2023-06-22T04:18:46;3.97;;;3.77;;
46284;SDS011;32018;59.182;18.148;2023-06-22T04:21:11;3.03;;;2.83;;
46284;SDS011;32018;59.182;18.148;2023-06-22T04:23:36;3.47;;;3.17;;
46284;SDS011;32018;59.182;18.148;2023-06-22T04:26:02;4.90;;;4.67;;
46284;SDS011;32018;59.182;18.148;2023-06-22T04:28:27;6.53;;;4.33;;
46284;SDS011;32018;59.182;18.148;2023-06-22T04:30:52;4.13;;;3.92;;
46284;SDS011;32018;59.182;18.148;2023-06-22T04:33:18;5.57;;;5.17;;
46284;SDS011;32018;59.182;18.148;2023-06-22T04:35:46;3.15;;;2.95;;
46284;SDS011;32018;59.182;18.148;2023-06-22T04:38:14;2.70;;;2.60;;
46284;SDS011;32018;59.182;18.148;2023-06-22T04:40:39;4.40;;;4.20;;
46284;SDS011;32018;59.182;18.148;2023-06-22T04:43:05;2.80;;;2.60;;
46284;SDS011;32018;59.182;18.148;2023-06-22T04:45:31;3.65;;;3.45;;
46284;SDS011;32018;59.182;18.148;2023-06-22T04:47:56;5.00;;;4.70;;
46284;SDS011;32018;59.182;18.148;2023-06-22T04:50:22;2.70;;;2.60;;
46284;SDS011;32018;59.182;18.148;2023-06-22T04:52:48;5.82;;;3.70;;
46284;SDS011;32018;59.182;18.148;2023-06-22T04:55:14;5.13;;;4.82;;
46284;SDS011;32018;59.182;18.148;2023-06-22T04:57:43;3.83;;;3.63;;
46284;SDS011;32018;59.182;18.148;2023-06-22T05:02:42;3.33;;;3.17;;
46284;SDS011;32018;59.182;18.148;2023-06-22T05:05:08;4.72;;;4.53;;
46284;SDS011;32018;59.182;18.148;2023-06-22T05:07:33;3.53;;;3.33;;
46284;SDS011;32018;59.182;18.148;2023-06-22T05:09:59;3.15;;;2.90;;
46284;SDS011;32018;59.182;18.148;2023-06-22T05:12:24;3.28;;;3.08;;
46284;SDS011;32018;59.182;18.148;2023-06-22T05:14:49;3.70;;;3.50;;
46284;SDS011;32018;59.182;18.148;2023-06-22T05:17:14;4.13;;;3.83;;
46284;SDS011;32018;59.182;18.148;2023-06-22T05:19:44;3.97;;;3.78;;
46284;SDS011;32018;59.182;18.148;2023-06-22T05:22:14;3.03;;;2.83;;
46284;SDS011;32018;59.182;18.148;2023-06-22T05:24:39;3.17;;;2.97;;
46284;SDS011;32018;59.182;18.148;2023-06-22T05:27:04;2.70;;;2.60;;
46284;SDS011;32018;59.182;18.148;2023-06-22T05:29:30;4.75;;;4.45;;
46284;SDS011;32018;59.182;18.148;2023-06-22T05:31:55;2.70;;;2.60;;
46284;SDS011;32018;59.182;18.148;2023-06-22T05:34:20;3.60;;;3.40;;
46284;SDS011;32018;59.182;18.148;2023-06-22T05:36:45;3.77;;;3.57;;
46284;SDS011;32018;59.182;18.148;2023-06-22T05:39:11;4.00;;;3.80;;
46284;SDS011;32018;59.182;18.148;2023-06-22T05:41:40;4.60;;;4.07;;
46284;SDS011;32018;59.182;18.148;2023-06-22T05:44:05;3.00;;;2.83;;
46284;SDS011;32018;59.182;18.148;2023-06-22T05:46:30;4.03;;;3.83;;
46284;SDS011;32018;59.182;18.148;2023-06-22T05:48:55;4.17;;;3.93;;
46284;SDS011;32018;59.182;18.148;2023-06-22T05:51:21;4.40;;;4.20;;
46284;SDS011;32018;59.182;18.148;2023-06-22T05:53:46;5.40;;;5.00;;
46284;SDS011;32018;59.182;18.148;2023-06-22T05:56:14;5.30;;;4.97;;
46284;SDS011;32018;59.182;18.148;2023-06-22T05:58:39;3.60;;;3.30;;
46284;SDS011;32018;59.182;18.148;2023-06-22T06:01:05;4.50;;;4.17;;
46284;SDS011;32018;59.182;18.148;2023-06-22T06:03:30;4.18;;;3.88;;
46284;SDS011;32018;59.182;18.148;2023-06-22T06:05:55;3.40;;;3.20;;
46284;SDS011;32018;59.182;18.148;2023-06-22T06:08:20;4.47;;;4.18;;
46284;SDS011;32018;59.182;18.148;2023-06-22T06:10:46;3.63;;;3.33;;
46284;SDS011;32018;59.182;18.148;2023-06-22T06:13:11;3.55;;;3.33;;
46284;SDS011;32018;59.182;18.148;2023-06-22T06:15:37;3.80;;;3.60;;
46284;SDS011;32018;59.182;18.148;2023-06-22T06:18:02;3.73;;;3.47;;
46284;SDS011;32018;59.182;18.148;2023-06-22T06:20:30;3.60;;;3.30;;
46284;SDS011;32018;59.182;18.148;2023-06-22T06:22:56;5.18;;;3.60;;
46284;SDS011;32018;59.182;18.148;2023-06-22T06:25:21;3.35;;;3.05;;
46284;SDS011;32018;59.182;18.148;2023-06-22T06:27:48;3.30;;;3.03;;
46284;SDS011;32018;59.182;18.148;2023-06-22T06:30:13;4.80;;;3.67;;
46284;SDS011;32018;59.182;18.148;2023-06-22T06:32:39;3.00;;;2.80;;
46284;SDS011;32018;59.182;18.148;2023-06-22T06:35:08;3.42;;;3.13;;
46284;SDS011;32018;59.182;18.148;2023-06-22T06:37:37;3.20;;;3.00;;
46284;SDS011;32018;59.182;18.148;2023-06-22T06:40:03;3.30;;;3.10;;
46284;SDS011;32018;59.182;18.148;2023-06-22T06:42:30;2.45;;;2.35;;
46284;SDS011;32018;59.182;18.148;2023-06-22T06:44:56;2.75;;;2.55;;
46284;SDS011;32018;59.182;18.148;2023-06-22T06:47:21;2.87;;;2.67;;
46284;SDS011;32018;59.182;18.148;2023-06-22T06:49:46;2.83;;;2.53;;
46284;SDS011;32018;59.182;18.148;2023-06-22T06:52:12;2.63;;;2.43;;
46284;SDS011;32018;59.182;18.148;2023-06-22T06:54:37;2.92;;;2.63;;
46284;SDS011;32018;59.182;18.148;2023-06-22T06:57:02;2.40;;;2.20;;
46284;SDS011;32018;59.182;18.148;2023-06-22T06:59:28;2.63;;;2.35;;
46284;SDS011;32018;59.182;18.148;2023-06-22T07:01:54;2.97;;;2.78;;
46284;SDS011;32018;59.182;18.148;2023-06-22T07:04:19;3.17;;;2.67;;
46284;SDS011;32018;59.182;18.148;2023-06-22T07:06:44;3.33;;;2.53;;
46284;SDS011;32018;59.182;18.148;2023-06-22T07:09:09;3.10;;;2.90;;
46284;SDS011;32018;59.182;18.148;2023-06-22T07:11:35;2.95;;;2.75;;
46284;SDS011;32018;59.182;18.148;2023-06-22T07:14:01;3.10;;;2.85;;
46284;SDS011;32018;59.182;18.148;2023-06-22T07:16:26;2.70;;;2.50;;
46284;SDS011;32018;59.182;18.148;2023-06-22T07:18:52;3.40;;;2.80;;
46284;SDS011;32018;59.182;18.148;2023-06-22T07:21:18;2.50;;;2.30;;
46284;SDS011;32018;59.182;18.148;2023-06-22T07:23:43;2.70;;;2.50;;
46284;SDS011;32018;59.182;18.148;2023-06-22T07:26:08;3.00;;;2.80;;
46284;SDS011;32018;59.182;18.148;2023-06-22T07:28:33;2.58;;;2.40;;
46284;SDS011;32018;59.182;18.148;2023-06-22T07:31:02;1.90;;;1.80;;
46284;SDS011;32018;59.182;18.148;2023-06-22T07:33:28;2.35;;;2.15;;
46284;SDS011;32018;59.182;18.148;2023-06-22T07:35:54;2.33;;;2.10;;
46284;SDS011;32018;59.182;18.148;2023-06-22T07:38:19;3.23;;;2.90;;
46284;SDS011;32018;59.182;18.148;2023-06-22T07:40:45;2.77;;;2.30;;
46284;SDS011;32018;59.182;18.148;2023-06-22T07:43:10;2.08;;;1.95;;
46284;SDS011;32018;59.182;18.148;2023-06-22T07:45:35;2.57;;;2.37;;
46284;SDS011;32018;59.182;18.148;2023-06-22T07:48:01;3.07;;;2.77;;
46284;SDS011;32018;59.182;18.148;2023-06-22T07:50:26;2.28;;;2.17;;
46284;SDS011;32018;59.182;18.148;2023-06-22T07:52:51;2.67;;;2.47;;
46284;SDS011;32018;59.182;18.148;2023-06-22T07:55:17;2.15;;;1.95;;
46284;SDS011;32018;59.182;18.148;2023-06-22T07:57:43;1.90;;;1.80;;
46284;SDS011;32018;59.182;18.148;2023-06-22T08:00:08;27.77;;;3.53;;
46284;SDS011;32018;59.182;18.148;2023-06-22T08:02:41;2.45;;;2.28;;
46284;SDS011;32018;59.182;18.148;2023-06-22T08:05:07;2.50;;;2.30;;
46284;SDS011;32018;59.182;18.148;2023-06-22T08:07:33;2.13;;;2.00;;
46284;SDS011;32018;59.182;18.148;2023-06-22T08:09:58;2.05;;;1.85;;
46284;SDS011;32018;59.182;18.148;2023-06-22T08:12:23;2.40;;;2.10;;
46284;SDS011;32018;59.182;18.148;2023-06-22T08:14:49;2.23;;;2.00;;
46284;SDS011;32018;59.182;18.148;2023-06-22T08:17:15;3.08;;;2.10;;
46284;SDS011;32018;59.182;18.148;2023-06-22T08:19:40;2.22;;;2.03;;
46284;SDS011;32018;59.182;18.148;2023-06-22T08:22:06;2.40;;;2.17;;
46284;SDS011;32018;59.182;18.148;2023-06-22T08:24:31;2.27;;;2.07;;
46284;SDS011;32018;59.182;18.148;2023-06-22T08:26:56;2.73;;;2.53;;
46284;SDS011;32018;59.182;18.148;2023-06-22T08:29:21;2.43;;;2.23;;
46284;SDS011;32018;59.182;18.148;2023-06-22T08:31:47;2.55;;;2.35;;
46284;SDS011;32018;59.182;18.148;2023-06-22T08:34:12;2.20;;;2.00;;
46284;SDS011;32018;59.182;18.148;2023-06-22T08:36:37;2.80;;;2.20;;
46284;SDS011;32018;59.182;18.148;2023-06-22T08:39:09;3.72;;;2.45;;
46284;SDS011;32018;59.182;18.148;2023-06-22T08:41:35;2.33;;;2.23;;
46284;SDS011;32018;59.182;18.148;2023-06-22T08:44:00;2.00;;;1.90;;
46284;SDS011;32018;59.182;18.148;2023-06-22T08:46:25;2.90;;;2.25;;
46284;SDS011;32018;59.182;18.148;2023-06-22T08:48:55;3.58;;;2.55;;
46284;SDS011;32018;59.182;18.148;2023-06-22T08:51:20;2.08;;;1.98;;
46284;SDS011;32018;59.182;18.148;2023-06-22T08:53:46;2.22;;;2.00;;
46284;SDS011;32018;59.182;18.148;2023-06-22T08:56:11;2.43;;;2.23;;
46284;SDS011;32018;59.182;18.148;2023-06-22T08:58:36;2.20;;;2.10;;
46284;SDS011;32018;59.182;18.148;2023-06-22T09:01:02;2.97;;;2.67;;
46284;SDS011;32018;59.182;18.148;2023-06-22T09:03:27;2.88;;;2.20;;
46284;SDS011;32018;59.182;18.148;2023-06-22T09:05:52;2.90;;;2.33;;
46284;SDS011;32018;59.182;18.148;2023-06-22T09:08:18;2.17;;;1.97;;
46284;SDS011;32018;59.182;18.148;2023-06-22T09:10:43;3.00;;;2.50;;
46284;SDS011;32018;59.182;18.148;2023-06-22T09:13:08;3.57;;;2.47;;
46284;SDS011;32018;59.182;18.148;2023-06-22T09:15:33;1.90;;;1.80;;
46284;SDS011;32018;59.182;18.148;2023-06-22T09:17:59;3.78;;;1.98;;
46284;SDS011;32018;59.182;18.148;2023-06-22T09:20:24;1.58;;;1.48;;
46284;SDS011;32018;59.182;18.148;2023-06-22T09:22:50;2.63;;;2.23;;
46284;SDS011;32018;59.182;18.148;2023-06-22T09:25:15;4.00;;;1.93;;
46284;SDS011;32018;59.182;18.148;2023-06-22T09:27:40;2.00;;;1.90;;
46284;SDS011;32018;59.182;18.148;2023-06-22T09:30:06;2.22;;;2.03;;
46284;SDS011;32018;59.182;18.148;2023-06-22T09:32:31;2.58;;;2.00;;
46284;SDS011;32018;59.182;18.148;2023-06-22T09:34:56;2.40;;;1.70;;
46284;SDS011;32018;59.182;18.148;2023-06-22T09:37:22;2.05;;;1.85;;
46284;SDS011;32018;59.182;18.148;2023-06-22T09:39:47;2.87;;;1.97;;
46284;SDS011;32018;59.182;18.148;2023-06-22T09:42:12;2.45;;;1.60;;
46284;SDS011;32018;59.182;18.148;2023-06-22T09:44:38;2.28;;;2.03;;
46284;SDS011;32018;59.182;18.148;2023-06-22T09:47:03;2.20;;;1.90;;
46284;SDS011;32018;59.182;18.148;2023-06-22T09:49:29;1.70;;;1.60;;
46284;SDS011;32018;59.182;18.148;2023-06-22T09:51:54;2.17;;;1.27;;
46284;SDS011;32018;59.182;18.148;2023-06-22T09:54:19;1.75;;;1.48;;
46284;SDS011;32018;59.182;18.148;2023-06-22T09:56:44;1.67;;;1.58;;
46284;SDS011;32018;59.182;18.148;2023-06-22T09:59:10;3.20;;;2.13;;
46284;SDS011;32018;59.182;18.148;2023-06-22T10:01:35;1.90;;;1.60;;
46284;SDS011;32018;59.182;18.148;2023-06-22T10:04:01;3.40;;;1.53;;
46284;SDS011;32018;59.182;18.148;2023-06-22T10:06:26;3.85;;;1.80;;
46284;SDS011;32018;59.182;18.148;2023-06-22T10:08:52;2.17;;;1.75;;
46284;SDS011;32018;59.182;18.148;2023-06-22T10:11:17;1.83;;;1.70;;
46284;SDS011;32018;59.182;18.148;2023-06-22T10:13:42;1.60;;;1.30;;
46284;SDS011;32018;59.182;18.148;2023-06-22T10:16:07;1.80;;;1.60;;
46284;SDS011;32018;59.182;18.148;2023-06-22T10:18:33;1.63;;;1.52;;
46284;SDS011;32018;59.182;18.148;2023-06-22T10:20:58;1.70;;;1.60;;
46284;SDS011;32018;59.182;18.148;2023-06-22T10:23:23;2.33;;;2.00;;
46284;SDS011;32018;59.182;18.148;2023-06-22T10:25:48;1.90;;;1.80;;
46284;SDS011;32018;59.182;18.148;2023-06-22T10:28:14;4.13;;;1.70;;
46284;SDS011;32018;59.182;18.148;2023-06-22T10:30:39;2.22;;;1.77;;
46284;SDS011;32018;59.182;18.148;2023-06-22T10:33:06;1.60;;;1.50;;
46284;SDS011;32018;59.182;18.148;2023-06-22T10:35:32;2.63;;;2.00;;
46284;SDS011;32018;59.182;18.148;2023-06-22T10:37:57;2.70;;;1.80;;
46284;SDS011;32018;59.182;18.148;2023-06-22T10:40:22;3.40;;;1.67;;
46284;SDS011;32018;59.182;18.148;2023-06-22T10:42:47;2.10;;;1.70;;
46284;SDS011;32018;59.182;18.148;2023-06-22T10:45:13;1.85;;;1.50;;
46284;SDS011;32018;59.182;18.148;2023-06-22T10:47:38;2.88;;;1.35;;
46284;SDS011;32018;59.182;18.148;2023-06-22T10:50:04;2.35;;;1.95;;
46284;SDS011;32018;59.182;18.148;2023-06-22T10:52:29;3.72;;;1.40;;
46284;SDS011;32018;59.182;18.148;2023-06-22T10:54:54;1.67;;;1.57;;
46284;SDS011;32018;59.182;18.148;2023-06-22T10:57:21;2.53;;;1.60;;
46284;SDS011;32018;59.182;18.148;2023-06-22T10:59:46;7.10;;;1.77;;
46284;SDS011;32018;59.182;18.148;2023-06-22T11:02:11;3.35;;;1.85;;
46284;SDS011;32018;59.182;18.148;2023-06-22T11:04:37;1.67;;;1.43;;
46284;SDS011;32018;59.182;18.148;2023-06-22T11:07:02;1.37;;;1.13;;
46284;SDS011;32018;59.182;18.148;2023-06-22T11:09:27;8.80;;;2.10;;
46284;SDS011;32018;59.182;18.148;2023-06-22T11:11:52;3.93;;;1.80;;
46284;SDS011;32018;59.182;18.148;2023-06-22T11:14:21;9.38;;;2.20;;
46284;SDS011;32018;59.182;18.148;2023-06-22T11:16:46;1.70;;;1.60;;
46284;SDS011;32018;59.182;18.148;2023-06-22T11:19:12;1.40;;;1.08;;
46284;SDS011;32018;59.182;18.148;2023-06-22T11:21:37;1.40;;;1.30;;
46284;SDS011;32018;59.182;18.148;2023-06-22T11:24:02;4.38;;;1.20;;
46284;SDS011;32018;59.182;18.148;2023-06-22T11:26:28;5.10;;;1.40;;
46284;SDS011;32018;59.182;18.148;2023-06-22T11:28:53;1.40;;;1.27;;
46284;SDS011;32018;59.182;18.148;2023-06-22T11:31:18;1.50;;;1.25;;
46284;SDS011;32018;59.182;18.148;2023-06-22T11:33:44;3.27;;;1.47;;
46284;SDS011;32018;59.182;18.148;2023-06-22T11:36:11;3.15;;;1.38;;
46284;SDS011;32018;59.182;18.148;2023-06-22T11:38:36;1.88;;;1.30;;
46284;SDS011;32018;59.182;18.148;2023-06-22T11:41:04;4.38;;;1.38;;
46284;SDS011;32018;59.182;18.148;2023-06-22T11:43:29;1.20;;;1.10;;
46284;SDS011;32018;59.182;18.148;2023-06-22T11:45:54;1.80;;;0.80;;
46284;SDS011;32018;59.182;18.148;2023-06-22T11:48:21;1.60;;;0.70;;
46284;SDS011;32018;59.182;18.148;2023-06-22T11:50:46;1.58;;;1.15;;
46284;SDS011;32018;59.182;18.148;2023-06-22T11:53:11;1.00;;;0.90;;
46284;SDS011;32018;59.182;18.148;2023-06-22T11:55:37;2.20;;;0.98;;
46284;SDS011;32018;59.182;18.148;2023-06-22T11:58:02;2.03;;;0.98;;
46284;SDS011;32018;59.182;18.148;2023-06-22T12:00:29;1.10;;;1.00;;
46284;SDS011;32018;59.182;18.148;2023-06-22T12:02:55;2.97;;;1.03;;
46284;SDS011;32018;59.182;18.148;2023-06-22T12:05:21;1.60;;;1.00;;
46284;SDS011;32018;59.182;18.148;2023-06-22T12:07:47;1.30;;;1.20;;
46284;SDS011;32018;59.182;18.148;2023-06-22T12:10:12;0.80;;;0.80;;
46284;SDS011;32018;59.182;18.148;2023-06-22T12:12:37;1.20;;;0.90;;
46284;SDS011;32018;59.182;18.148;2023-06-22T12:15:03;1.10;;;1.00;;
46284;SDS011;32018;59.182;18.148;2023-06-22T12:17:29;2.47;;;1.20;;
46284;SDS011;32018;59.182;18.148;2023-06-22T12:19:54;1.70;;;1.02;;
46284;SDS011;32018;59.182;18.148;2023-06-22T12:22:19;3.97;;;0.97;;
46284;SDS011;32018;59.182;18.148;2023-06-22T12:24:44;2.17;;;1.00;;
46284;SDS011;32018;59.182;18.148;2023-06-22T12:27:10;1.73;;;0.90;;
46284;SDS011;32018;59.182;18.148;2023-06-22T12:29:35;1.60;;;0.80;;
46284;SDS011;32018;59.182;18.148;2023-06-22T12:32:00;1.37;;;1.00;;
46284;SDS011;32018;59.182;18.148;2023-06-22T12:34:25;1.67;;;1.07;;
46284;SDS011;32018;59.182;18.148;2023-06-22T12:36:51;6.22;;;1.13;;
46284;SDS011;32018;59.182;18.148;2023-06-22T12:39:16;0.70;;;0.70;;
46284;SDS011;32018;59.182;18.148;2023-06-22T12:41:41;2.78;;;1.10;;
46284;SDS011;32018;59.182;18.148;2023-06-22T12:44:06;1.43;;;0.87;;
46284;SDS011;32018;59.182;18.148;2023-06-22T12:46:32;2.05;;;1.23;;
46284;SDS011;32018;59.182;18.148;2023-06-22T12:49:02;1.95;;;1.00;;
46284;SDS011;32018;59.182;18.148;2023-06-22T12:51:28;1.13;;;0.93;;
46284;SDS011;32018;59.182;18.148;2023-06-22T12:53:54;1.52;;;1.10;;
46284;SDS011;32018;59.182;18.148;2023-06-22T12:56:19;2.00;;;0.80;;
46284;SDS011;32018;59.182;18.148;2023-06-22T12:58:44;1.13;;;0.93;;
46284;SDS011;32018;59.182;18.148;2023-06-22T13:01:09;1.33;;;1.13;;
46284;SDS011;32018;59.182;18.148;2023-06-22T13:03:36;1.88;;;0.73;;
46284;SDS011;32018;59.182;18.148;2023-06-22T13:06:01;1.70;;;0.80;;
46284;SDS011;32018;59.182;18.148;2023-06-22T13:08:27;2.97;;;1.00;;
46284;SDS011;32018;59.182;18.148;2023-06-22T13:10:52;0.70;;;0.70;;
46284;SDS011;32018;59.182;18.148;2023-06-22T13:13:17;1.30;;;1.20;;
46284;SDS011;32018;59.182;18.148;2023-06-22T13:15:42;1.30;;;1.03;;
46284;SDS011;32018;59.182;18.148;2023-06-22T13:18:08;2.08;;;1.20;;
46284;SDS011;32018;59.182;18.148;2023-06-22T13:20:33;8.20;;;1.70;;
46284;SDS011;32018;59.182;18.148;2023-06-22T13:22:58;1.00;;;1.00;;
46284;SDS011;32018;59.182;18.148;2023-06-22T13:25:24;2.27;;;0.87;;
46284;SDS011;32018;59.182;18.148;2023-06-22T13:27:51;2.10;;;1.42;;
46284;SDS011;32018;59.182;18.148;2023-06-22T13:30:16;0.90;;;0.90;;
46284;SDS011;32018;59.182;18.148;2023-06-22T13:32:41;1.50;;;1.40;;
46284;SDS011;32018;59.182;18.148;2023-06-22T13:35:08;1.23;;;1.10;;
46284;SDS011;32018;59.182;18.148;2023-06-22T13:37:33;1.50;;;1.20;;
46284;SDS011;32018;59.182;18.148;2023-06-22T13:39:58;0.83;;;0.80;;
46284;SDS011;32018;59.182;18.148;2023-06-22T13:42:24;1.33;;;1.20;;
46284;SDS011;32018;59.182;18.148;2023-06-22T13:44:49;1.58;;;1.10;;
46284;SDS011;32018;59.182;18.148;2023-06-22T13:47:15;1.63;;;1.20;;
46284;SDS011;32018;59.182;18.148;2023-06-22T13:49:43;1.10;;;0.98;;
46284;SDS011;32018;59.182;18.148;2023-06-22T13:52:08;1.07;;;0.97;;
46284;SDS011;32018;59.182;18.148;2023-06-22T13:54:35;1.92;;;1.20;;
46284;SDS011;32018;59.182;18.148;2023-06-22T13:57:00;0.95;;;0.95;;
46284;SDS011;32018;59.182;18.148;2023-06-22T13:59:26;2.33;;;0.97;;
46284;SDS011;32018;59.182;18.148;2023-06-22T14:01:52;0.80;;;0.80;;
46284;SDS011;32018;59.182;18.148;2023-06-22T14:04:18;2.15;;;1.00;;
46284;SDS011;32018;59.182;18.148;2023-06-22T14:06:43;1.17;;;1.00;;
46284;SDS011;32018;59.182;18.148;2023-06-22T14:09:08;2.00;;;1.00;;
46284;SDS011;32018;59.182;18.148;2023-06-22T14:11:34;1.75;;;1.40;;
46284;SDS011;32018;59.182;18.148;2023-06-22T14:13:59;1.85;;;1.40;;
46284;SDS011;32018;59.182;18.148;2023-06-22T14:16:25;1.33;;;1.20;;
46284;SDS011;32018;59.182;18.148;2023-06-22T14:18:50;1.02;;;0.93;;
46284;SDS011;32018;59.182;18.148;2023-06-22T14:21:15;1.87;;;1.30;;
46284;SDS011;32018;59.182;18.148;2023-06-22T14:23:40;1.00;;;1.00;;
46284;SDS011;32018;59.182;18.148;2023-06-22T14:26:06;1.03;;;0.93;;
46284;SDS011;32018;59.182;18.148;2023-06-22T14:28:31;1.30;;;1.20;;
46284;SDS011;32018;59.182;18.148;2023-06-22T14:30:56;2.37;;;1.30;;
46284;SDS011;32018;59.182;18.148;2023-06-22T14:33:21;1.10;;;1.00;;
46284;SDS011;32018;59.182;18.148;2023-06-22T14:35:47;5.60;;;0.90;;
46284;SDS011;32018;59.182;18.148;2023-06-22T14:38:12;3.65;;;1.20;;